EKRK/RKE METAR and TAF weather

Enter ICAO airport designator
Station Type Date Time Source
EKRK METAR 2019/06/17 12:50 UTC NOAA

EKRK 171250Z AUTO 25009KT 220V280 9999 BKN038/// 22/12 Q1021


Station Type Date Time Source
EKRK Decoded METAR 2019/06/17 12:50 UTC NOAA

Koebenhavn / Roskilde, Denmark (EKRK) 55-35N 012-08E 44M
Jun 17, 2019 - 08:50 AM EDT / 2019.06.17 1250 UTC
Wind: from the WSW (250 degrees) at 10 MPH (9 KT) (direction variable):0
Visibility: greater than 7 mile(s):0
Sky conditions: mostly cloudy
Temperature: 71 F (22 C)
Dew Point: 53 F (12 C)
Relative Humidity: 53%
Pressure (altimeter): 30.15 in. Hg (1021 hPa)
ob: EKRK 171250Z AUTO 25009KT 220V280 9999 BKN038/// 22/12 Q1021
cycle: 13

Station Type Date Time Source
EKRK TAF UTC NOAA

Error!

Example: see airport list